sensor_id;sensor_type;location;lat;lon;timestamp;P1;durP1;ratioP1;P2;durP2;ratioP2
20505;SDS011;10411;48.148;7.704;2022-10-04T00:04:10;25.70;;;23.57;;
20505;SDS011;10411;48.148;7.704;2022-10-04T00:06:37;25.40;;;23.17;;
20505;SDS011;10411;48.148;7.704;2022-10-04T00:09:14;25.47;;;23.43;;
20505;SDS011;10411;48.148;7.704;2022-10-04T00:11:44;25.57;;;23.13;;
20505;SDS011;10411;48.148;7.704;2022-10-04T00:14:14;25.93;;;23.70;;
20505;SDS011;10411;48.148;7.704;2022-10-04T00:16:42;28.53;;;24.73;;
20505;SDS011;10411;48.148;7.704;2022-10-04T00:24:23;23.93;;;22.23;;
20505;SDS011;10411;48.148;7.704;2022-10-04T00:32:33;24.40;;;21.87;;
20505;SDS011;10411;48.148;7.704;2022-10-04T00:34:44;24.70;;;22.33;;
20505;SDS011;10411;48.148;7.704;2022-10-04T00:37:17;24.37;;;22.13;;
20505;SDS011;10411;48.148;7.704;2022-10-04T00:39:57;23.83;;;21.77;;
20505;SDS011;10411;48.148;7.704;2022-10-04T00:45:01;24.10;;;22.10;;
20505;SDS011;10411;48.148;7.704;2022-10-04T00:47:34;24.00;;;21.77;;
20505;SDS011;10411;48.148;7.704;2022-10-04T00:50:04;23.77;;;21.90;;
20505;SDS011;10411;48.148;7.704;2022-10-04T00:52:33;24.63;;;22.43;;
20505;SDS011;10411;48.148;7.704;2022-10-04T00:55:01;24.93;;;22.93;;
20505;SDS011;10411;48.148;7.704;2022-10-04T00:57:36;24.20;;;22.13;;
20505;SDS011;10411;48.148;7.704;2022-10-04T01:00:05;24.80;;;22.87;;
20505;SDS011;10411;48.148;7.704;2022-10-04T01:02:35;24.27;;;21.87;;
20505;SDS011;10411;48.148;7.704;2022-10-04T01:05:04;24.27;;;22.13;;
20505;SDS011;10411;48.148;7.704;2022-10-04T01:07:43;24.17;;;22.17;;
20505;SDS011;10411;48.148;7.704;2022-10-04T01:10:20;24.57;;;22.33;;
20505;SDS011;10411;48.148;7.704;2022-10-04T01:12:55;23.63;;;21.83;;
20505;SDS011;10411;48.148;7.704;2022-10-04T01:15:26;23.63;;;21.70;;
20505;SDS011;10411;48.148;7.704;2022-10-04T01:20:56;22.97;;;21.27;;
20505;SDS011;10411;48.148;7.704;2022-10-04T01:31:23;23.40;;;21.60;;
20505;SDS011;10411;48.148;7.704;2022-10-04T01:33:50;24.57;;;22.67;;
20505;SDS011;10411;48.148;7.704;2022-10-04T01:36:16;23.53;;;21.70;;
20505;SDS011;10411;48.148;7.704;2022-10-04T01:38:42;23.57;;;21.53;;
20505;SDS011;10411;48.148;7.704;2022-10-04T01:41:08;23.80;;;22.00;;
20505;SDS011;10411;48.148;7.704;2022-10-04T01:43:37;24.50;;;22.50;;
20505;SDS011;10411;48.148;7.704;2022-10-04T01:46:13;26.20;;;24.20;;
20505;SDS011;10411;48.148;7.704;2022-10-04T01:48:40;27.73;;;25.20;;
20505;SDS011;10411;48.148;7.704;2022-10-04T01:53:46;28.83;;;26.30;;
20505;SDS011;10411;48.148;7.704;2022-10-04T01:56:15;27.43;;;25.33;;
20505;SDS011;10411;48.148;7.704;2022-10-04T02:03:43;27.07;;;24.87;;
20505;SDS011;10411;48.148;7.704;2022-10-04T02:06:10;28.47;;;26.03;;
20505;SDS011;10411;48.148;7.704;2022-10-04T02:08:38;27.37;;;25.17;;
20505;SDS011;10411;48.148;7.704;2022-10-04T02:11:06;26.40;;;24.30;;
20505;SDS011;10411;48.148;7.704;2022-10-04T02:13:35;26.70;;;24.80;;
20505;SDS011;10411;48.148;7.704;2022-10-04T02:16:02;26.60;;;24.17;;
20505;SDS011;10411;48.148;7.704;2022-10-04T02:18:32;25.93;;;23.87;;
20505;SDS011;10411;48.148;7.704;2022-10-04T02:21:01;25.87;;;23.97;;
20505;SDS011;10411;48.148;7.704;2022-10-04T02:23:29;27.67;;;24.67;;
20505;SDS011;10411;48.148;7.704;2022-10-04T02:25:56;27.47;;;24.90;;
20505;SDS011;10411;48.148;7.704;2022-10-04T02:28:23;27.83;;;25.70;;
20505;SDS011;10411;48.148;7.704;2022-10-04T02:30:50;27.87;;;25.27;;
20505;SDS011;10411;48.148;7.704;2022-10-04T02:33:47;26.13;;;24.20;;
20505;SDS011;10411;48.148;7.704;2022-10-04T02:36:14;25.10;;;23.20;;
20505;SDS011;10411;48.148;7.704;2022-10-04T02:38:43;25.17;;;23.27;;
20505;SDS011;10411;48.148;7.704;2022-10-04T02:44:50;24.93;;;23.13;;
20505;SDS011;10411;48.148;7.704;2022-10-04T02:47:28;25.77;;;23.67;;
20505;SDS011;10411;48.148;7.704;2022-10-04T02:49:59;30.73;;;27.63;;
20505;SDS011;10411;48.148;7.704;2022-10-04T02:57:22;24.43;;;22.50;;
20505;SDS011;10411;48.148;7.704;2022-10-04T02:59:48;28.37;;;24.30;;
20505;SDS011;10411;48.148;7.704;2022-10-04T03:02:22;25.70;;;23.40;;
20505;SDS011;10411;48.148;7.704;2022-10-04T03:04:49;25.67;;;23.40;;
20505;SDS011;10411;48.148;7.704;2022-10-04T03:07:16;25.70;;;23.40;;
20505;SDS011;10411;48.148;7.704;2022-10-04T03:09:43;24.73;;;22.80;;
20505;SDS011;10411;48.148;7.704;2022-10-04T03:12:10;24.93;;;22.93;;
20505;SDS011;10411;48.148;7.704;2022-10-04T03:14:37;25.23;;;23.33;;
20505;SDS011;10411;48.148;7.704;2022-10-04T03:17:05;24.33;;;22.50;;
20505;SDS011;10411;48.148;7.704;2022-10-04T03:19:32;24.67;;;22.53;;
20505;SDS011;10411;48.148;7.704;2022-10-04T03:22:05;24.83;;;22.83;;
20505;SDS011;10411;48.148;7.704;2022-10-04T03:24:33;24.37;;;22.63;;
20505;SDS011;10411;48.148;7.704;2022-10-04T03:27:00;23.53;;;21.90;;
20505;SDS011;10411;48.148;7.704;2022-10-04T03:29:28;23.17;;;21.57;;
20505;SDS011;10411;48.148;7.704;2022-10-04T03:31:55;25.03;;;23.13;;
20505;SDS011;10411;48.148;7.704;2022-10-04T03:34:26;24.60;;;22.80;;
20505;SDS011;10411;48.148;7.704;2022-10-04T03:36:53;24.97;;;22.97;;
20505;SDS011;10411;48.148;7.704;2022-10-04T03:39:32;25.20;;;23.20;;
20505;SDS011;10411;48.148;7.704;2022-10-04T03:42:01;25.07;;;22.83;;
20505;SDS011;10411;48.148;7.704;2022-10-04T03:44:28;24.00;;;22.20;;
20505;SDS011;10411;48.148;7.704;2022-10-04T03:46:55;23.30;;;21.70;;
20505;SDS011;10411;48.148;7.704;2022-10-04T03:49:24;24.53;;;22.70;;
20505;SDS011;10411;48.148;7.704;2022-10-04T03:51:53;24.07;;;22.37;;
20505;SDS011;10411;48.148;7.704;2022-10-04T03:54:20;24.67;;;22.50;;
20505;SDS011;10411;48.148;7.704;2022-10-04T03:56:47;24.93;;;23.03;;
20505;SDS011;10411;48.148;7.704;2022-10-04T03:59:16;25.20;;;23.10;;
20505;SDS011;10411;48.148;7.704;2022-10-04T04:04:30;25.93;;;23.93;;
20505;SDS011;10411;48.148;7.704;2022-10-04T04:07:01;27.77;;;25.43;;
20505;SDS011;10411;48.148;7.704;2022-10-04T04:12:09;26.40;;;24.10;;
20505;SDS011;10411;48.148;7.704;2022-10-04T04:14:35;27.73;;;25.53;;
20505;SDS011;10411;48.148;7.704;2022-10-04T04:19:47;27.47;;;25.13;;
20505;SDS011;10411;48.148;7.704;2022-10-04T04:22:14;28.90;;;25.80;;
20505;SDS011;10411;48.148;7.704;2022-10-04T04:24:41;28.07;;;25.57;;
20505;SDS011;10411;48.148;7.704;2022-10-04T04:27:08;29.23;;;26.63;;
20505;SDS011;10411;48.148;7.704;2022-10-04T04:29:37;29.33;;;26.63;;
20505;SDS011;10411;48.148;7.704;2022-10-04T04:32:23;27.50;;;25.23;;
20505;SDS011;10411;48.148;7.704;2022-10-04T04:34:50;75.10;;;24.60;;
20505;SDS011;10411;48.148;7.704;2022-10-04T04:37:17;28.40;;;25.97;;
20505;SDS011;10411;48.148;7.704;2022-10-04T04:39:43;77.83;;;25.97;;
20505;SDS011;10411;48.148;7.704;2022-10-04T04:45:02;45.20;;;24.63;;
20505;SDS011;10411;48.148;7.704;2022-10-04T04:47:29;26.60;;;24.00;;
20505;SDS011;10411;48.148;7.704;2022-10-04T04:50:00;27.30;;;24.60;;
20505;SDS011;10411;48.148;7.704;2022-10-04T04:52:28;25.93;;;24.10;;
20505;SDS011;10411;48.148;7.704;2022-10-04T04:54:55;26.63;;;24.47;;
20505;SDS011;10411;48.148;7.704;2022-10-04T04:57:21;25.30;;;23.50;;
20505;SDS011;10411;48.148;7.704;2022-10-04T04:59:48;26.93;;;24.97;;
20505;SDS011;10411;48.148;7.704;2022-10-04T05:05:13;24.23;;;22.63;;
20505;SDS011;10411;48.148;7.704;2022-10-04T05:07:39;24.33;;;22.73;;
20505;SDS011;10411;48.148;7.704;2022-10-04T05:12:54;24.70;;;23.00;;
20505;SDS011;10411;48.148;7.704;2022-10-04T05:15:20;24.67;;;22.97;;
20505;SDS011;10411;48.148;7.704;2022-10-04T05:17:46;24.57;;;22.87;;
20505;SDS011;10411;48.148;7.704;2022-10-04T05:20:12;23.73;;;22.13;;
20505;SDS011;10411;48.148;7.704;2022-10-04T05:22:40;25.77;;;23.77;;
20505;SDS011;10411;48.148;7.704;2022-10-04T05:25:09;26.83;;;24.73;;
20505;SDS011;10411;48.148;7.704;2022-10-04T05:27:40;26.83;;;24.67;;
20505;SDS011;10411;48.148;7.704;2022-10-04T05:30:13;27.67;;;25.40;;
20505;SDS011;10411;48.148;7.704;2022-10-04T05:52:05;25.83;;;23.70;;
20505;SDS011;10411;48.148;7.704;2022-10-04T05:54:43;26.50;;;24.40;;
20505;SDS011;10411;48.148;7.704;2022-10-04T06:02:26;27.23;;;25.07;;
20505;SDS011;10411;48.148;7.704;2022-10-04T06:05:17;25.80;;;23.87;;
20505;SDS011;10411;48.148;7.704;2022-10-04T06:15:21;26.93;;;24.83;;
20505;SDS011;10411;48.148;7.704;2022-10-04T06:17:56;26.27;;;24.33;;
20505;SDS011;10411;48.148;7.704;2022-10-04T06:20:49;26.60;;;24.63;;
20505;SDS011;10411;48.148;7.704;2022-10-04T06:23:18;26.57;;;24.57;;
20505;SDS011;10411;48.148;7.704;2022-10-04T06:28:30;24.73;;;22.90;;
20505;SDS011;10411;48.148;7.704;2022-10-04T06:31:15;26.00;;;24.10;;
20505;SDS011;10411;48.148;7.704;2022-10-04T06:51:59;30.83;;;28.10;;
20505;SDS011;10411;48.148;7.704;2022-10-04T06:54:44;31.90;;;28.80;;
20505;SDS011;10411;48.148;7.704;2022-10-04T07:00:17;29.43;;;26.67;;
20505;SDS011;10411;48.148;7.704;2022-10-04T07:05:17;30.40;;;27.33;;
20505;SDS011;10411;48.148;7.704;2022-10-04T07:07:48;31.23;;;28.23;;
20505;SDS011;10411;48.148;7.704;2022-10-04T07:15:30;30.03;;;27.53;;
20505;SDS011;10411;48.148;7.704;2022-10-04T07:17:58;30.60;;;27.77;;
20505;SDS011;10411;48.148;7.704;2022-10-04T07:20:30;30.93;;;28.17;;
20505;SDS011;10411;48.148;7.704;2022-10-04T07:23:05;30.47;;;27.77;;
20505;SDS011;10411;48.148;7.704;2022-10-04T07:25:36;31.00;;;27.83;;
20505;SDS011;10411;48.148;7.704;2022-10-04T07:31:04;33.17;;;29.80;;
20505;SDS011;10411;48.148;7.704;2022-10-04T07:33:40;32.70;;;29.40;;
20505;SDS011;10411;48.148;7.704;2022-10-04T07:36:09;30.83;;;27.83;;
20505;SDS011;10411;48.148;7.704;2022-10-04T07:38:37;42.77;;;29.07;;
20505;SDS011;10411;48.148;7.704;2022-10-04T07:41:12;63.73;;;30.57;;
20505;SDS011;10411;48.148;7.704;2022-10-04T07:49:01;26.93;;;24.73;;
20505;SDS011;10411;48.148;7.704;2022-10-04T07:54:18;26.63;;;24.17;;
20505;SDS011;10411;48.148;7.704;2022-10-04T07:56:50;28.67;;;25.60;;
20505;SDS011;10411;48.148;7.704;2022-10-04T08:02:02;29.23;;;24.23;;
20505;SDS011;10411;48.148;7.704;2022-10-04T08:07:25;27.00;;;24.70;;
20505;SDS011;10411;48.148;7.704;2022-10-04T08:12:48;26.37;;;24.47;;
20505;SDS011;10411;48.148;7.704;2022-10-04T08:15:22;25.57;;;23.67;;
20505;SDS011;10411;48.148;7.704;2022-10-04T08:20:33;26.10;;;24.30;;
20505;SDS011;10411;48.148;7.704;2022-10-04T08:25:28;30.40;;;28.10;;
20505;SDS011;10411;48.148;7.704;2022-10-04T08:36:23;24.37;;;22.67;;
20505;SDS011;10411;48.148;7.704;2022-10-04T08:38:58;24.03;;;22.43;;
20505;SDS011;10411;48.148;7.704;2022-10-04T08:44:32;23.63;;;21.93;;
20505;SDS011;10411;48.148;7.704;2022-10-04T08:49:41;24.90;;;23.00;;
20505;SDS011;10411;48.148;7.704;2022-10-04T08:52:28;24.90;;;23.20;;
20505;SDS011;10411;48.148;7.704;2022-10-04T08:55:14;25.00;;;22.97;;
20505;SDS011;10411;48.148;7.704;2022-10-04T08:57:58;25.10;;;23.10;;
20505;SDS011;10411;48.148;7.704;2022-10-04T09:08:18;26.23;;;24.33;;
20505;SDS011;10411;48.148;7.704;2022-10-04T09:13:28;29.27;;;26.70;;
20505;SDS011;10411;48.148;7.704;2022-10-04T09:21:05;28.23;;;25.80;;
20505;SDS011;10411;48.148;7.704;2022-10-04T09:26:19;27.10;;;25.07;;
20505;SDS011;10411;48.148;7.704;2022-10-04T09:36:37;28.80;;;26.70;;
20505;SDS011;10411;48.148;7.704;2022-10-04T09:52:09;27.87;;;25.77;;
20505;SDS011;10411;48.148;7.704;2022-10-04T10:10:39;29.33;;;27.03;;
20505;SDS011;10411;48.148;7.704;2022-10-04T10:27:03;30.17;;;27.13;;
20505;SDS011;10411;48.148;7.704;2022-10-04T10:37:49;32.17;;;29.47;;
20505;SDS011;10411;48.148;7.704;2022-10-04T10:45:31;31.73;;;28.80;;
20505;SDS011;10411;48.148;7.704;2022-10-04T10:48:12;33.37;;;30.47;;
20505;SDS011;10411;48.148;7.704;2022-10-04T10:50:48;30.97;;;28.30;;
20505;SDS011;10411;48.148;7.704;2022-10-04T10:53:28;31.43;;;28.87;;
20505;SDS011;10411;48.148;7.704;2022-10-04T10:56:27;30.60;;;28.20;;
20505;SDS011;10411;48.148;7.704;2022-10-04T11:04:42;33.77;;;30.77;;
20505;SDS011;10411;48.148;7.704;2022-10-04T11:10:19;32.77;;;29.57;;
20505;SDS011;10411;48.148;7.704;2022-10-04T11:28:53;32.97;;;29.90;;
20505;SDS011;10411;48.148;7.704;2022-10-04T11:34:11;31.30;;;28.13;;
20505;SDS011;10411;48.148;7.704;2022-10-04T11:36:51;31.07;;;28.27;;
20505;SDS011;10411;48.148;7.704;2022-10-04T11:41:55;30.57;;;28.17;;
20505;SDS011;10411;48.148;7.704;2022-10-04T11:44:37;29.87;;;27.47;;
20505;SDS011;10411;48.148;7.704;2022-10-04T11:47:14;30.07;;;27.67;;
20505;SDS011;10411;48.148;7.704;2022-10-04T12:00:16;28.87;;;26.57;;
20505;SDS011;10411;48.148;7.704;2022-10-04T12:21:35;27.23;;;25.10;;
20505;SDS011;10411;48.148;7.704;2022-10-04T12:32:27;26.97;;;24.67;;
20505;SDS011;10411;48.148;7.704;2022-10-04T12:37:58;26.93;;;24.50;;
20505;SDS011;10411;48.148;7.704;2022-10-04T12:40:24;26.43;;;24.10;;
20505;SDS011;10411;48.148;7.704;2022-10-04T12:42:56;25.70;;;23.80;;
20505;SDS011;10411;48.148;7.704;2022-10-04T12:45:33;25.67;;;23.73;;
20505;SDS011;10411;48.148;7.704;2022-10-04T12:53:25;26.07;;;23.93;;
20505;SDS011;10411;48.148;7.704;2022-10-04T12:58:31;26.20;;;24.10;;
20505;SDS011;10411;48.148;7.704;2022-10-04T13:01:02;25.57;;;23.40;;
20505;SDS011;10411;48.148;7.704;2022-10-04T13:06:47;25.87;;;23.63;;
20505;SDS011;10411;48.148;7.704;2022-10-04T13:13:55;24.87;;;22.87;;
20505;SDS011;10411;48.148;7.704;2022-10-04T13:16:32;25.77;;;23.77;;
20505;SDS011;10411;48.148;7.704;2022-10-04T13:26:42;24.30;;;22.50;;
20505;SDS011;10411;48.148;7.704;2022-10-04T13:31:49;25.20;;;23.30;;
20505;SDS011;10411;48.148;7.704;2022-10-04T13:55:31;26.67;;;24.67;;
20505;SDS011;10411;48.148;7.704;2022-10-04T13:58:30;26.00;;;23.97;;
20505;SDS011;10411;48.148;7.704;2022-10-04T14:06:18;26.50;;;24.47;;
20505;SDS011;10411;48.148;7.704;2022-10-04T14:08:58;26.40;;;24.10;;
20505;SDS011;10411;48.148;7.704;2022-10-04T14:11:30;25.50;;;23.60;;
20505;SDS011;10411;48.148;7.704;2022-10-04T14:29:48;25.27;;;23.20;;
20505;SDS011;10411;48.148;7.704;2022-10-04T14:34:59;26.00;;;23.80;;
20505;SDS011;10411;48.148;7.704;2022-10-04T14:50:32;23.87;;;22.03;;
20505;SDS011;10411;48.148;7.704;2022-10-04T15:11:11;22.67;;;20.93;;
20505;SDS011;10411;48.148;7.704;2022-10-04T15:18:51;22.50;;;20.90;;
20505;SDS011;10411;48.148;7.704;2022-10-04T15:24:44;22.57;;;20.97;;
20505;SDS011;10411;48.148;7.704;2022-10-04T15:37:19;22.03;;;20.40;;
20505;SDS011;10411;48.148;7.704;2022-10-04T15:42:34;20.83;;;19.43;;
20505;SDS011;10411;48.148;7.704;2022-10-04T16:00:26;21.50;;;20.10;;
20505;SDS011;10411;48.148;7.704;2022-10-04T16:05:45;21.97;;;20.57;;
20505;SDS011;10411;48.148;7.704;2022-10-04T16:18:53;24.17;;;22.40;;
20505;SDS011;10411;48.148;7.704;2022-10-04T16:34:16;22.97;;;21.40;;
20505;SDS011;10411;48.148;7.704;2022-10-04T16:42:43;24.57;;;22.77;;
20505;SDS011;10411;48.148;7.704;2022-10-04T16:47:55;24.60;;;22.47;;
20505;SDS011;10411;48.148;7.704;2022-10-04T16:50:44;23.37;;;21.50;;
20505;SDS011;10411;48.148;7.704;2022-10-04T16:53:22;23.20;;;21.60;;
20505;SDS011;10411;48.148;7.704;2022-10-04T16:55:54;22.10;;;20.50;;
20505;SDS011;10411;48.148;7.704;2022-10-04T17:03:40;24.10;;;22.10;;
20505;SDS011;10411;48.148;7.704;2022-10-04T17:06:13;24.27;;;22.30;;
20505;SDS011;10411;48.148;7.704;2022-10-04T17:08:54;23.40;;;21.90;;
20505;SDS011;10411;48.148;7.704;2022-10-04T17:11:30;25.33;;;23.20;;
20505;SDS011;10411;48.148;7.704;2022-10-04T17:14:01;26.43;;;24.13;;
20505;SDS011;10411;48.148;7.704;2022-10-04T17:16:37;24.63;;;22.67;;
20505;SDS011;10411;48.148;7.704;2022-10-04T17:21:38;24.60;;;22.53;;
20505;SDS011;10411;48.148;7.704;2022-10-04T17:32:02;23.33;;;21.60;;
20505;SDS011;10411;48.148;7.704;2022-10-04T17:39:40;27.33;;;25.23;;
20505;SDS011;10411;48.148;7.704;2022-10-04T18:28:44;30.00;;;27.10;;
20505;SDS011;10411;48.148;7.704;2022-10-04T18:33:56;30.47;;;27.30;;
20505;SDS011;10411;48.148;7.704;2022-10-04T18:36:26;26.43;;;23.87;;
20505;SDS011;10411;48.148;7.704;2022-10-04T18:39:04;25.97;;;23.63;;
20505;SDS011;10411;48.148;7.704;2022-10-04T18:41:42;25.43;;;23.23;;
20505;SDS011;10411;48.148;7.704;2022-10-04T18:44:28;27.30;;;23.63;;
20505;SDS011;10411;48.148;7.704;2022-10-04T18:46:57;26.33;;;24.23;;
20505;SDS011;10411;48.148;7.704;2022-10-04T18:49:28;25.00;;;23.07;;
20505;SDS011;10411;48.148;7.704;2022-10-04T18:54:36;27.63;;;25.33;;
20505;SDS011;10411;48.148;7.704;2022-10-04T19:08:02;23.83;;;21.97;;
20505;SDS011;10411;48.148;7.704;2022-10-04T19:10:31;24.70;;;22.70;;
20505;SDS011;10411;48.148;7.704;2022-10-04T19:15:36;24.50;;;22.73;;
20505;SDS011;10411;48.148;7.704;2022-10-04T19:21:13;24.33;;;22.27;;
20505;SDS011;10411;48.148;7.704;2022-10-04T19:25:58;24.87;;;22.50;;
20505;SDS011;10411;48.148;7.704;2022-10-04T19:28:27;24.67;;;22.93;;
20505;SDS011;10411;48.148;7.704;2022-10-04T19:31:05;24.07;;;22.37;;
20505;SDS011;10411;48.148;7.704;2022-10-04T19:36:21;23.53;;;21.90;;
20505;SDS011;10411;48.148;7.704;2022-10-04T19:41:28;24.33;;;22.40;;
20505;SDS011;10411;48.148;7.704;2022-10-04T19:48:51;23.57;;;21.87;;
20505;SDS011;10411;48.148;7.704;2022-10-04T19:51:28;24.03;;;22.33;;
20505;SDS011;10411;48.148;7.704;2022-10-04T19:54:01;24.13;;;22.13;;
20505;SDS011;10411;48.148;7.704;2022-10-04T19:56:30;24.77;;;22.60;;
20505;SDS011;10411;48.148;7.704;2022-10-04T20:01:26;24.47;;;22.30;;
20505;SDS011;10411;48.148;7.704;2022-10-04T20:03:53;25.57;;;23.73;;
20505;SDS011;10411;48.148;7.704;2022-10-04T20:06:46;24.27;;;22.40;;
20505;SDS011;10411;48.148;7.704;2022-10-04T20:11:48;24.13;;;22.23;;
20505;SDS011;10411;48.148;7.704;2022-10-04T20:34:54;24.87;;;22.97;;
20505;SDS011;10411;48.148;7.704;2022-10-04T20:37:20;24.70;;;22.67;;
20505;SDS011;10411;48.148;7.704;2022-10-04T20:42:29;23.87;;;22.03;;
20505;SDS011;10411;48.148;7.704;2022-10-04T20:44:57;23.53;;;21.73;;
20505;SDS011;10411;48.148;7.704;2022-10-04T20:49:51;25.50;;;23.50;;
20505;SDS011;10411;48.148;7.704;2022-10-04T20:52:20;23.03;;;21.23;;
20505;SDS011;10411;48.148;7.704;2022-10-04T20:54:50;23.10;;;21.50;;
20505;SDS011;10411;48.148;7.704;2022-10-04T20:57:17;25.03;;;22.93;;
20505;SDS011;10411;48.148;7.704;2022-10-04T20:59:45;23.57;;;21.27;;
20505;SDS011;10411;48.148;7.704;2022-10-04T21:02:14;22.80;;;20.77;;
20505;SDS011;10411;48.148;7.704;2022-10-04T21:04:40;23.97;;;21.63;;
20505;SDS011;10411;48.148;7.704;2022-10-04T21:07:09;24.43;;;22.40;;
20505;SDS011;10411;48.148;7.704;2022-10-04T21:09:39;22.73;;;21.23;;
20505;SDS011;10411;48.148;7.704;2022-10-04T21:12:06;23.80;;;21.87;;
20505;SDS011;10411;48.148;7.704;2022-10-04T21:14:36;23.13;;;21.33;;
20505;SDS011;10411;48.148;7.704;2022-10-04T21:17:03;21.97;;;20.43;;
20505;SDS011;10411;48.148;7.704;2022-10-04T21:22:05;24.33;;;22.30;;
20505;SDS011;10411;48.148;7.704;2022-10-04T21:27:01;21.87;;;19.97;;
20505;SDS011;10411;48.148;7.704;2022-10-04T21:29:27;21.80;;;20.00;;
20505;SDS011;10411;48.148;7.704;2022-10-04T21:31:56;21.50;;;20.10;;
20505;SDS011;10411;48.148;7.704;2022-10-04T21:34:22;22.33;;;20.73;;
20505;SDS011;10411;48.148;7.704;2022-10-04T21:36:48;21.97;;;20.23;;
20505;SDS011;10411;48.148;7.704;2022-10-04T21:39:14;21.70;;;20.03;;
20505;SDS011;10411;48.148;7.704;2022-10-04T21:41:40;21.47;;;20.17;;
20505;SDS011;10411;48.148;7.704;2022-10-04T21:44:06;21.67;;;20.07;;
20505;SDS011;10411;48.148;7.704;2022-10-04T21:46:32;21.30;;;19.83;;
20505;SDS011;10411;48.148;7.704;2022-10-04T21:48:58;22.07;;;20.60;;
20505;SDS011;10411;48.148;7.704;2022-10-04T21:51:24;22.20;;;20.67;;
20505;SDS011;10411;48.148;7.704;2022-10-04T21:53:50;22.43;;;20.60;;
20505;SDS011;10411;48.148;7.704;2022-10-04T21:56:16;22.47;;;20.77;;
20505;SDS011;10411;48.148;7.704;2022-10-04T21:58:42;21.90;;;20.43;;
20505;SDS011;10411;48.148;7.704;2022-10-04T22:01:08;22.20;;;20.50;;
20505;SDS011;10411;48.148;7.704;2022-10-04T22:03:34;22.37;;;20.53;;
20505;SDS011;10411;48.148;7.704;2022-10-04T22:06:01;22.70;;;21.00;;
20505;SDS011;10411;48.148;7.704;2022-10-04T22:08:26;22.43;;;20.80;;
20505;SDS011;10411;48.148;7.704;2022-10-04T22:10:52;22.60;;;21.00;;
20505;SDS011;10411;48.148;7.704;2022-10-04T22:13:18;22.80;;;21.13;;
20505;SDS011;10411;48.148;7.704;2022-10-04T22:15:44;22.07;;;20.47;;
20505;SDS011;10411;48.148;7.704;2022-10-04T22:18:10;23.23;;;21.57;;
20505;SDS011;10411;48.148;7.704;2022-10-04T22:20:36;22.27;;;20.73;;
20505;SDS011;10411;48.148;7.704;2022-10-04T22:23:03;22.03;;;20.53;;
20505;SDS011;10411;48.148;7.704;2022-10-04T22:25:34;22.07;;;20.57;;
20505;SDS011;10411;48.148;7.704;2022-10-04T22:28:00;21.70;;;20.40;;
20505;SDS011;10411;48.148;7.704;2022-10-04T22:30:27;22.07;;;20.47;;
20505;SDS011;10411;48.148;7.704;2022-10-04T22:32:57;22.33;;;20.80;;
20505;SDS011;10411;48.148;7.704;2022-10-04T22:35:23;22.50;;;20.53;;
20505;SDS011;10411;48.148;7.704;2022-10-04T22:37:49;22.87;;;20.93;;
20505;SDS011;10411;48.148;7.704;2022-10-04T22:40:17;22.87;;;20.90;;
20505;SDS011;10411;48.148;7.704;2022-10-04T22:42:43;22.40;;;20.80;;
20505;SDS011;10411;48.148;7.704;2022-10-04T22:45:19;22.57;;;20.60;;
20505;SDS011;10411;48.148;7.704;2022-10-04T22:47:46;22.03;;;20.33;;
20505;SDS011;10411;48.148;7.704;2022-10-04T22:50:34;23.07;;;21.23;;
20505;SDS011;10411;48.148;7.704;2022-10-04T22:53:00;22.63;;;20.80;;
20505;SDS011;10411;48.148;7.704;2022-10-04T22:55:27;21.87;;;20.27;;
20505;SDS011;10411;48.148;7.704;2022-10-04T22:57:53;21.43;;;19.93;;
20505;SDS011;10411;48.148;7.704;2022-10-04T23:00:19;21.90;;;20.33;;
20505;SDS011;10411;48.148;7.704;2022-10-04T23:02:45;21.30;;;19.77;;
20505;SDS011;10411;48.148;7.704;2022-10-04T23:05:12;21.47;;;20.00;;
20505;SDS011;10411;48.148;7.704;2022-10-04T23:07:39;22.10;;;20.07;;
20505;SDS011;10411;48.148;7.704;2022-10-04T23:10:05;22.00;;;20.60;;
20505;SDS011;10411;48.148;7.704;2022-10-04T23:12:32;22.40;;;20.70;;
20505;SDS011;10411;48.148;7.704;2022-10-04T23:14:58;22.00;;;20.50;;
20505;SDS011;10411;48.148;7.704;2022-10-04T23:17:27;21.77;;;20.27;;
20505;SDS011;10411;48.148;7.704;2022-10-04T23:19:53;21.60;;;20.20;;
20505;SDS011;10411;48.148;7.704;2022-10-04T23:22:21;21.30;;;19.80;;
20505;SDS011;10411;48.148;7.704;2022-10-04T23:24:50;21.43;;;20.03;;
20505;SDS011;10411;48.148;7.704;2022-10-04T23:27:16;21.77;;;20.20;;
20505;SDS011;10411;48.148;7.704;2022-10-04T23:29:44;22.13;;;20.57;;
20505;SDS011;10411;48.148;7.704;2022-10-04T23:32:11;21.90;;;20.50;;
20505;SDS011;10411;48.148;7.704;2022-10-04T23:34:38;21.37;;;20.00;;
20505;SDS011;10411;48.148;7.704;2022-10-04T23:37:28;21.53;;;19.93;;
20505;SDS011;10411;48.148;7.704;2022-10-04T23:39:54;21.77;;;19.97;;
20505;SDS011;10411;48.148;7.704;2022-10-04T23:42:22;21.87;;;20.40;;
20505;SDS011;10411;48.148;7.704;2022-10-04T23:44:52;21.27;;;19.87;;
20505;SDS011;10411;48.148;7.704;2022-10-04T23:47:19;22.60;;;20.63;;
20505;SDS011;10411;48.148;7.704;2022-10-04T23:49:47;22.13;;;20.50;;
20505;SDS011;10411;48.148;7.704;2022-10-04T23:52:18;21.77;;;20.37;;
20505;SDS011;10411;48.148;7.704;2022-10-04T23:54:44;20.77;;;19.37;;
20505;SDS011;10411;48.148;7.704;2022-10-04T23:57:10;21.77;;;20.17;;
20505;SDS011;10411;48.148;7.704;2022-10-04T23:59:41;22.07;;;20.23;;
